createdAt,value
2023-01-29T00:03:01.806Z,78.59
2023-01-29T00:09:04.187Z,78.74
2023-01-29T00:15:07.300Z,78.48
2023-01-29T00:21:21.934Z,78.63
2023-01-29T00:27:24.257Z,78.87
2023-01-29T00:33:31.734Z,78.91
2023-01-29T00:39:47.846Z,79.00
2023-01-29T00:45:50.725Z,79.24
2023-01-29T00:52:13.256Z,79.48
2023-01-29T00:58:22.848Z,79.22
2023-01-29T01:04:30.181Z,79.30
2023-01-29T01:10:34.716Z,79.30
2023-01-29T01:16:37.288Z,78.64
2023-01-29T01:22:40.664Z,78.74
2023-01-29T01:28:45.659Z,78.95
2023-01-29T01:34:49.622Z,78.32
2023-01-29T01:40:53.048Z,78.42
2023-01-29T01:46:58.507Z,78.51
2023-01-29T01:53:11.017Z,78.84
2023-01-29T01:59:21.474Z,78.63
2023-01-29T02:05:44.019Z,78.78
2023-01-29T02:11:46.503Z,78.97
2023-01-29T02:17:55.840Z,78.81
2023-01-29T02:24:04.579Z,78.63
2023-01-29T02:30:16.365Z,78.65
2023-01-29T02:36:52.528Z,78.95
2023-01-29T02:42:59.042Z,78.38
2023-01-29T02:49:36.389Z,78.81
2023-01-29T02:55:55.161Z,78.72
2023-01-29T03:02:09.686Z,78.86
2023-01-29T03:08:21.156Z,78.80
2023-01-29T03:14:51.739Z,79.13
2023-01-29T03:21:09.218Z,79.08
2023-01-29T03:27:33.836Z,79.43
2023-01-29T03:33:52.362Z,79.38
2023-01-29T03:39:55.788Z,79.81
2023-01-29T03:46:09.359Z,79.52
2023-01-29T03:52:17.776Z,79.67
2023-01-29T03:58:44.322Z,79.63
2023-01-29T04:04:58.876Z,79.18
2023-01-29T04:11:09.381Z,79.66
2023-01-29T04:17:25.920Z,79.60
2023-01-29T04:23:28.318Z,79.67
2023-01-29T04:29:43.824Z,79.49
2023-01-29T04:36:32.467Z,79.59
2023-01-29T04:43:02.071Z,79.72
2023-01-29T04:49:19.707Z,79.32
2023-01-29T04:55:46.357Z,79.61
2023-01-29T05:01:51.617Z,79.09
2023-01-29T05:07:58.035Z,79.04
2023-01-29T05:14:03.532Z,79.17
2023-01-29T05:20:13.410Z,79.47
2023-01-29T05:26:34.607Z,79.32
2023-01-29T05:32:41.249Z,79.23
2023-01-29T05:38:43.525Z,79.64
2023-01-29T05:44:45.975Z,79.35
2023-01-29T05:50:49.184Z,79.15
2023-01-29T05:56:53.908Z,79.55
2023-01-29T06:02:59.429Z,79.64
2023-01-29T06:09:02.843Z,79.18
2023-01-29T06:15:05.301Z,78.94
2023-01-29T06:21:21.837Z,79.33
2023-01-29T06:27:25.288Z,78.78
2023-01-29T06:33:27.757Z,78.79
2023-01-29T06:39:29.939Z,76.09
2023-01-29T06:45:33.729Z,76.54
2023-01-29T06:51:40.642Z,77.74
2023-01-29T06:57:43.651Z,76.83
2023-01-29T07:03:46.104Z,78.06
2023-01-29T07:09:48.575Z,77.79
2023-01-29T07:15:51.012Z,76.53
2023-01-29T07:21:53.575Z,76.74
2023-01-29T07:28:00.890Z,77.30
2023-01-29T07:34:10.120Z,76.22
2023-01-29T07:40:19.971Z,76.33
2023-01-29T07:46:22.399Z,76.02
2023-01-29T07:52:24.871Z,76.37
2023-01-29T07:58:30.317Z,76.32
2023-01-29T08:04:32.815Z,76.81
2023-01-29T08:10:40.314Z,77.28
2023-01-29T08:16:42.856Z,77.63
2023-01-29T08:22:45.292Z,78.07
2023-01-29T08:28:50.731Z,78.40
2023-01-29T08:34:58.100Z,78.29
2023-01-29T08:41:02.691Z,78.43
2023-01-29T08:47:05.132Z,78.50
2023-01-29T08:53:09.648Z,78.89
2023-01-29T08:59:12.067Z,78.82
2023-01-29T09:05:15.104Z,79.09
2023-01-29T09:11:21.973Z,79.67
2023-01-29T09:17:24.465Z,79.24
2023-01-29T09:23:28.955Z,78.64
2023-01-29T09:29:31.433Z,78.35
2023-01-29T09:35:34.868Z,78.26
2023-01-29T09:41:45.351Z,78.09
2023-01-29T09:48:00.845Z,78.08
2023-01-29T09:54:31.464Z,77.43
2023-01-29T10:01:19.158Z,77.83
2023-01-29T10:08:00.739Z,77.93
2023-01-29T10:14:04.914Z,77.23
2023-01-29T10:20:25.761Z,77.44
2023-01-29T10:26:30.268Z,77.60
2023-01-29T10:32:33.666Z,77.12
2023-01-29T10:38:47.207Z,77.59
2023-01-29T10:45:09.721Z,76.78
2023-01-29T10:51:20.598Z,76.45
2023-01-29T10:57:42.764Z,76.39
2023-01-29T11:03:56.671Z,76.93
2023-01-29T11:10:08.743Z,76.89
2023-01-29T11:16:12.200Z,76.32
2023-01-29T11:22:25.696Z,76.44
2023-01-29T11:28:42.210Z,76.75
2023-01-29T11:35:05.758Z,77.47
2023-01-29T11:41:23.275Z,77.75
2023-01-29T11:47:30.766Z,77.89
2023-01-29T11:53:37.835Z,78.33
2023-01-29T11:59:50.725Z,78.50
2023-01-29T12:06:30.322Z,78.94
2023-01-29T12:12:43.833Z,78.90
2023-01-29T12:19:21.938Z,78.25
2023-01-29T12:25:40.021Z,78.03
2023-01-29T12:32:03.906Z,78.36
2023-01-29T12:38:28.094Z,77.92
2023-01-29T12:44:49.099Z,77.99
2023-01-29T12:50:55.061Z,78.13
2023-01-29T12:57:03.558Z,78.59
2023-01-29T13:03:31.901Z,78.60
2023-01-29T13:09:41.287Z,78.58
2023-01-29T13:15:45.055Z,78.67
2023-01-29T13:21:50.535Z,78.73
2023-01-29T13:27:52.987Z,78.30
2023-01-29T13:34:13.522Z,78.90
2023-01-29T13:40:27.036Z,78.79
2023-01-29T13:46:32.497Z,78.86
2023-01-29T13:52:34.955Z,78.96
2023-01-29T13:58:46.445Z,79.11
2023-01-29T14:04:48.890Z,79.68
2023-01-29T14:11:16.400Z,79.32
2023-01-29T14:17:20.934Z,79.45
2023-01-29T14:23:40.533Z,79.68
2023-01-29T14:29:43.927Z,79.36
2023-01-29T14:35:53.303Z,79.74
2023-01-29T14:42:01.075Z,78.54
2023-01-29T14:48:43.328Z,78.68
2023-01-29T14:54:50.017Z,79.06
2023-01-29T15:00:57.439Z,79.54
2023-01-29T15:07:12.987Z,79.32
2023-01-29T15:13:31.491Z,78.92
2023-01-29T15:19:47.017Z,78.38
2023-01-29T15:25:53.503Z,78.09
2023-01-29T15:32:00.054Z,77.51
2023-01-29T15:38:10.151Z,77.40
2023-01-29T15:44:19.963Z,77.83
2023-01-29T15:50:24.816Z,77.45
2023-01-29T15:56:41.347Z,78.39
2023-01-29T16:02:46.458Z,78.08
2023-01-29T16:08:52.889Z,77.84
2023-01-29T16:14:57.404Z,77.99
2023-01-29T16:21:06.876Z,77.45
2023-01-29T16:27:14.404Z,77.67
2023-01-29T16:33:17.976Z,77.65
2023-01-29T16:39:31.340Z,77.73
2023-01-29T16:45:33.867Z,77.47
2023-01-29T16:51:40.351Z,77.19
2023-01-29T16:57:44.775Z,77.85
2023-01-29T17:03:57.289Z,77.83
2023-01-29T17:10:05.751Z,78.14
2023-01-29T17:16:26.335Z,78.18
2023-01-29T17:22:28.750Z,78.46
2023-01-29T17:28:34.195Z,78.28
2023-01-29T17:34:36.696Z,78.63
2023-01-29T17:40:49.112Z,78.22
2023-01-29T17:46:53.655Z,77.43
2023-01-29T17:53:06.534Z,77.42
2023-01-29T17:59:22.929Z,77.10
2023-01-29T18:05:26.091Z,77.39
2023-01-29T18:11:33.616Z,77.37
2023-01-29T18:17:36.059Z,76.89
2023-01-29T18:23:38.548Z,77.00
2023-01-29T18:29:42.002Z,76.53
2023-01-29T18:36:15.534Z,76.49
2023-01-29T18:42:18.037Z,75.86
2023-01-29T18:48:22.991Z,75.51
2023-01-29T18:54:25.955Z,74.64
2023-01-29T19:00:28.396Z,74.83
2023-01-29T19:06:37.102Z,74.44
2023-01-29T19:12:46.424Z,74.37
2023-01-29T19:18:53.228Z,73.93
2023-01-29T19:24:56.319Z,73.89
2023-01-29T19:30:59.922Z,73.83
2023-01-29T19:37:05.268Z,74.28
2023-01-29T19:43:07.789Z,73.82
2023-01-29T19:49:11.229Z,73.85
2023-01-29T19:55:13.719Z,73.79
2023-01-29T20:01:18.172Z,73.45
2023-01-29T20:07:20.049Z,74.01
2023-01-29T20:13:25.173Z,73.73
2023-01-29T20:19:28.629Z,73.81
2023-01-29T20:25:32.123Z,73.99
2023-01-29T20:31:39.015Z,73.95
2023-01-29T20:37:43.375Z,73.89
2023-01-29T20:43:46.543Z,74.19
2023-01-29T20:49:51.844Z,73.27
2023-01-29T20:56:05.605Z,74.36
2023-01-29T21:02:13.959Z,73.27
2023-01-29T21:08:16.478Z,73.64
2023-01-29T21:14:25.092Z,72.78
2023-01-29T21:20:27.469Z,72.92
2023-01-29T21:26:29.927Z,72.10
2023-01-29T21:32:32.341Z,72.10
2023-01-29T21:38:34.818Z,72.25
2023-01-29T21:44:39.270Z,72.17
2023-01-29T21:50:45.530Z,73.11
2023-01-29T21:56:48.196Z,72.40
2023-01-29T22:02:53.631Z,72.92
2023-01-29T22:08:56.148Z,73.11
2023-01-29T22:14:59.934Z,73.32
2023-01-29T22:21:05.035Z,73.75
2023-01-29T22:27:07.511Z,74.07
2023-01-29T22:33:10.944Z,74.21
2023-01-29T22:39:17.407Z,74.04
2023-01-29T22:45:19.877Z,73.80
2023-01-29T22:51:22.359Z,74.49
2023-01-29T22:57:24.782Z,75.44
2023-01-29T23:03:27.272Z,76.55
2023-01-29T23:09:29.694Z,76.50
2023-01-29T23:15:32.141Z,76.18
2023-01-29T23:21:34.597Z,73.95
2023-01-29T23:27:36.636Z,73.66
2023-01-29T23:33:39.554Z,73.70
2023-01-29T23:39:43.599Z,74.29
2023-01-29T23:45:47.479Z,74.73
2023-01-29T23:51:51.993Z,74.85
2023-01-29T23:57:58.423Z,74.12
